createdAt,value
2018-09-28T00:00:46.967Z,1.87
2018-09-28T00:03:16.303Z,1.97
2018-09-28T00:05:45.943Z,1.97
2018-09-28T00:08:15.227Z,1.73
2018-09-28T00:10:44.488Z,1.70
2018-09-28T00:13:13.537Z,2.30
2018-09-28T00:15:42.687Z,1.77
2018-09-28T00:18:11.952Z,1.70
2018-09-28T00:20:41.136Z,2.20
2018-09-28T00:23:10.431Z,2.13
2018-09-28T00:25:39.852Z,1.93
2018-09-28T00:28:09.866Z,1.80
2018-09-28T00:30:39.371Z,1.67
2018-09-28T00:33:08.619Z,1.33
2018-09-28T00:35:37.855Z,1.67
2018-09-28T00:38:07.057Z,2.20
2018-09-28T00:40:36.399Z,2.07
2018-09-28T00:43:07.321Z,2.10
2018-09-28T00:45:36.532Z,1.70
2018-09-28T00:48:06.320Z,1.70
2018-09-28T00:50:35.494Z,1.10
2018-09-28T00:53:05.228Z,1.80
2018-09-28T00:55:34.322Z,1.70
2018-09-28T00:58:03.367Z,1.93
2018-09-28T01:00:33.223Z,1.60
2018-09-28T01:03:02.231Z,1.30
2018-09-28T01:05:31.334Z,1.60
2018-09-28T01:08:00.548Z,1.50
2018-09-28T01:10:29.515Z,1.33
2018-09-28T01:12:58.855Z,1.27
2018-09-28T01:15:28.114Z,1.33
2018-09-28T01:17:57.409Z,1.50
2018-09-28T01:20:26.403Z,1.83
2018-09-28T01:22:55.907Z,1.43
2018-09-28T01:25:25.315Z,1.90
2018-09-28T01:27:54.383Z,1.63
2018-09-28T01:30:23.719Z,1.47
2018-09-28T01:32:52.992Z,1.60
2018-09-28T01:35:22.715Z,1.63
2018-09-28T01:37:51.927Z,1.50
2018-09-28T01:40:21.259Z,1.10
2018-09-28T01:42:50.461Z,1.87
2018-09-28T01:45:19.824Z,1.30
2018-09-28T01:47:49.015Z,1.33
2018-09-28T01:50:18.519Z,1.90
2018-09-28T01:52:47.732Z,1.77
2018-09-28T01:55:17.614Z,1.53
2018-09-28T01:57:46.822Z,1.50
2018-09-28T02:00:15.851Z,1.50
2018-09-28T02:02:44.812Z,1.83
2018-09-28T02:05:14.782Z,10.13
2018-09-28T02:07:44.083Z,2.80
2018-09-28T02:10:13.359Z,2.47
2018-09-28T02:12:42.527Z,2.90
2018-09-28T02:15:11.732Z,2.37
2018-09-28T02:17:41.152Z,1.80
2018-09-28T02:20:10.231Z,2.20
2018-09-28T02:22:39.732Z,2.40
2018-09-28T02:25:09.339Z,3.23
2018-09-28T02:27:38.860Z,2.40
2018-09-28T02:30:08.567Z,2.60
2018-09-28T02:32:37.707Z,2.63
2018-09-28T02:35:07.558Z,2.50
2018-09-28T02:37:37.067Z,2.60
2018-09-28T02:40:06.215Z,1.93
2018-09-28T02:42:35.443Z,2.37
2018-09-28T02:45:04.548Z,2.30
2018-09-28T02:47:33.760Z,2.23
2018-09-28T02:50:03.666Z,2.33
2018-09-28T02:52:32.707Z,2.00
2018-09-28T02:55:01.707Z,1.57
2018-09-28T02:57:31.164Z,1.83
2018-09-28T03:00:00.275Z,2.22
2018-09-28T03:02:29.252Z,1.83
2018-09-28T03:04:58.315Z,1.80
2018-09-28T03:07:28.056Z,1.80
2018-09-28T03:09:57.359Z,1.70
2018-09-28T03:12:26.448Z,2.30
2018-09-28T03:14:55.961Z,1.63
2018-09-28T03:17:25.663Z,2.37
2018-09-28T03:19:55.252Z,2.00
2018-09-28T03:22:24.495Z,1.80
2018-09-28T03:24:53.563Z,1.80
2018-09-28T03:27:22.552Z,2.80
2018-09-28T03:29:51.856Z,2.13
2018-09-28T03:32:21.065Z,2.43
2018-09-28T03:34:50.254Z,2.43
2018-09-28T03:37:19.583Z,1.67
2018-09-28T03:39:48.963Z,2.37
2018-09-28T03:42:18.121Z,1.70
2018-09-28T03:44:47.408Z,1.63
2018-09-28T03:47:16.959Z,1.60
2018-09-28T03:49:46.472Z,1.80
2018-09-28T03:52:15.554Z,2.40
2018-09-28T03:54:44.863Z,2.53
2018-09-28T03:57:14.372Z,2.97
2018-09-28T03:59:44.187Z,1.63
2018-09-28T04:02:13.379Z,1.70
2018-09-28T04:04:42.772Z,1.80
2018-09-28T04:07:11.991Z,2.17
2018-09-28T04:09:41.167Z,2.27
2018-09-28T04:12:10.666Z,1.83
2018-09-28T04:14:39.575Z,2.10
2018-09-28T04:17:08.715Z,1.83
2018-09-28T04:19:37.892Z,1.30
2018-09-28T04:22:07.473Z,2.20
2018-09-28T04:24:36.987Z,2.53
2018-09-28T04:27:06.596Z,2.17
2018-09-28T04:29:35.891Z,2.00
2018-09-28T04:32:05.099Z,1.70
2018-09-28T04:34:34.800Z,1.77
2018-09-28T04:37:04.403Z,1.47
2018-09-28T04:39:34.019Z,2.20
2018-09-28T04:42:03.624Z,2.57
2018-09-28T04:44:32.707Z,2.50
2018-09-28T04:47:01.802Z,2.53
2018-09-28T04:49:31.087Z,2.83
2018-09-28T04:52:00.324Z,2.40
2018-09-28T04:54:29.437Z,3.60
2018-09-28T04:56:59.114Z,3.40
2018-09-28T04:59:28.211Z,2.77
2018-09-28T05:01:57.239Z,3.13
2018-09-28T05:04:26.706Z,3.07
2018-09-28T05:06:55.828Z,3.90
2018-09-28T05:09:24.883Z,3.80
2018-09-28T05:11:54.159Z,6.10
2018-09-28T05:14:24.525Z,6.87
2018-09-28T05:16:53.620Z,6.90
2018-09-28T05:19:24.203Z,6.30
2018-09-28T05:21:53.255Z,5.07
2018-09-28T05:24:22.479Z,5.55
2018-09-28T05:26:51.763Z,4.57
2018-09-28T05:29:20.724Z,4.37
2018-09-28T05:31:50.050Z,4.13
2018-09-28T05:34:19.202Z,3.97
2018-09-28T05:36:48.535Z,8.60
2018-09-28T05:39:18.503Z,7.03
2018-09-28T05:41:47.532Z,6.63
2018-09-28T05:44:16.532Z,6.80
2018-09-28T05:46:45.898Z,7.33
2018-09-28T05:49:15.652Z,7.00
2018-09-28T05:51:44.744Z,4.90
2018-09-28T05:54:14.255Z,5.83
2018-09-28T05:56:43.335Z,4.87
2018-09-28T05:59:18.173Z,4.73
2018-09-28T06:01:52.598Z,4.13
2018-09-28T06:04:26.963Z,3.40
2018-09-28T06:06:56.367Z,8.33
2018-09-28T06:09:25.842Z,6.13
2018-09-28T06:11:55.032Z,5.13
2018-09-28T06:14:24.115Z,3.73
2018-09-28T06:16:53.147Z,3.27
2018-09-28T06:19:22.153Z,3.97
2018-09-28T06:21:51.488Z,3.90
2018-09-28T06:24:21.216Z,4.33
2018-09-28T06:26:50.767Z,2.70
2018-09-28T06:29:20.123Z,3.47
2018-09-28T06:31:49.275Z,2.83
2018-09-28T06:34:18.724Z,2.83
2018-09-28T06:36:48.331Z,4.37
2018-09-28T06:39:18.033Z,3.03
2018-09-28T06:41:47.119Z,3.07
2018-09-28T06:44:16.748Z,3.47
2018-09-28T06:46:46.059Z,3.50
2018-09-28T06:49:15.639Z,3.87
2018-09-28T06:51:45.423Z,4.73
2018-09-28T06:54:14.559Z,4.80
2018-09-28T06:56:44.365Z,3.67
2018-09-28T06:59:13.667Z,5.17
2018-09-28T07:01:43.335Z,5.70
2018-09-28T07:04:12.953Z,3.70
2018-09-28T07:06:42.217Z,2.83
2018-09-28T07:09:13.226Z,2.93
2018-09-28T07:11:42.327Z,3.13
2018-09-28T07:14:12.140Z,3.43
2018-09-28T07:16:42.254Z,4.47
2018-09-28T07:19:11.545Z,3.30
2018-09-28T07:21:41.068Z,2.80
2018-09-28T07:24:10.459Z,2.30
2018-09-28T07:26:39.864Z,2.00
2018-09-28T07:29:09.118Z,2.47
2018-09-28T07:31:38.342Z,2.30
2018-09-28T07:34:07.612Z,2.90
2018-09-28T07:36:36.955Z,3.80
2018-09-28T07:39:10.763Z,3.70
2018-09-28T07:41:41.612Z,4.47
2018-09-28T07:44:11.032Z,4.10
2018-09-28T07:46:40.721Z,3.67
2018-09-28T07:49:10.260Z,3.57
2018-09-28T07:51:40.248Z,3.87
2018-09-28T07:54:10.540Z,3.00
2018-09-28T07:56:41.216Z,2.57
2018-09-28T07:59:12.253Z,3.07
2018-09-28T08:01:41.612Z,3.87
2018-09-28T08:04:11.140Z,2.30
2018-09-28T08:06:43.076Z,2.57
2018-09-28T08:09:12.206Z,1.83
2018-09-28T08:11:41.725Z,2.00
2018-09-28T08:14:11.930Z,2.60
2018-09-28T08:16:41.456Z,1.57
2018-09-28T08:19:11.551Z,1.93
2018-09-28T08:21:41.200Z,2.30
2018-09-28T08:24:10.476Z,2.13
2018-09-28T08:26:39.696Z,2.83
2018-09-28T08:29:08.767Z,1.90
2018-09-28T08:31:38.266Z,1.83
2018-09-28T08:34:08.307Z,2.03
2018-09-28T08:36:37.578Z,3.00
2018-09-28T08:39:09.211Z,2.23
2018-09-28T08:41:38.418Z,2.10
2018-09-28T08:44:08.240Z,1.80
2018-09-28T08:46:37.546Z,4.27
2018-09-28T08:49:06.982Z,4.83
2018-09-28T08:51:37.080Z,1.90
2018-09-28T08:54:06.096Z,2.47
2018-09-28T08:56:35.484Z,2.53
2018-09-28T08:59:05.175Z,2.53
2018-09-28T09:01:34.276Z,2.50
2018-09-28T09:04:03.472Z,2.40
2018-09-28T09:06:32.567Z,2.37
2018-09-28T09:09:01.763Z,2.53
2018-09-28T09:11:30.934Z,2.53
2018-09-28T09:13:59.868Z,2.60
2018-09-28T09:16:28.915Z,2.50
2018-09-28T09:18:58.444Z,2.63
2018-09-28T09:21:28.835Z,2.47
2018-09-28T09:23:58.345Z,3.03
2018-09-28T09:26:27.908Z,2.23
2018-09-28T09:28:57.452Z,3.77
2018-09-28T09:31:26.520Z,3.53
2018-09-28T09:33:56.000Z,2.20
2018-09-28T09:36:25.192Z,2.97
2018-09-28T09:38:55.825Z,2.20
2018-09-28T09:41:25.741Z,2.70
2018-09-28T09:43:54.908Z,2.20
2018-09-28T09:46:24.956Z,3.00
2018-09-28T09:48:54.559Z,2.57
2018-09-28T09:51:24.071Z,2.30
2018-09-28T09:53:53.358Z,2.50
2018-09-28T09:56:23.085Z,2.53
2018-09-28T09:58:52.223Z,2.33
2018-09-28T10:01:27.612Z,2.60
2018-09-28T10:03:56.795Z,2.67
2018-09-28T10:06:26.011Z,2.60
2018-09-28T10:08:55.723Z,2.37
2018-09-28T10:11:24.819Z,2.30
2018-09-28T10:13:54.279Z,2.40
2018-09-28T10:16:23.495Z,2.20
2018-09-28T10:18:52.930Z,2.57
2018-09-28T10:21:22.224Z,2.30
2018-09-28T10:23:51.431Z,2.40
2018-09-28T10:26:21.439Z,2.80
2018-09-28T10:28:50.606Z,2.33
2018-09-28T10:31:20.348Z,3.07
2018-09-28T10:33:49.515Z,3.13
2018-09-28T10:36:19.043Z,2.70
2018-09-28T10:38:48.250Z,3.00
2018-09-28T10:41:18.343Z,2.50
2018-09-28T10:43:47.292Z,1.93
2018-09-28T10:46:16.763Z,2.43
2018-09-28T10:48:46.956Z,2.83
2018-09-28T10:51:19.961Z,2.67
2018-09-28T10:53:49.711Z,2.50
2018-09-28T10:56:18.755Z,2.60
2018-09-28T10:58:48.336Z,2.67
2018-09-28T11:01:17.279Z,2.20
2018-09-28T11:03:46.851Z,2.20
2018-09-28T11:06:15.934Z,2.47
2018-09-28T11:08:45.697Z,2.37
2018-09-28T11:11:14.992Z,2.57
2018-09-28T11:13:44.239Z,2.80
2018-09-28T11:16:13.376Z,2.70
2018-09-28T11:18:42.597Z,3.00
2018-09-28T11:21:12.118Z,2.83
2018-09-28T11:23:41.319Z,2.83
2018-09-28T11:26:10.374Z,2.40
2018-09-28T11:28:39.783Z,2.60
2018-09-28T11:31:09.247Z,2.60
2018-09-28T11:33:38.850Z,2.37
2018-09-28T11:36:08.151Z,2.67
2018-09-28T11:38:37.696Z,2.50
2018-09-28T11:41:07.627Z,2.20
2018-09-28T11:43:37.232Z,2.87
2018-09-28T11:46:06.302Z,2.17
2018-09-28T11:48:35.721Z,2.50
2018-09-28T11:51:05.032Z,2.20
2018-09-28T11:53:34.328Z,2.20
2018-09-28T11:56:03.718Z,2.22
2018-09-28T11:58:32.835Z,1.72
2018-09-28T12:01:02.127Z,4.00
2018-09-28T12:03:31.633Z,2.40
2018-09-28T12:06:01.282Z,2.10
2018-09-28T12:08:30.624Z,2.55
2018-09-28T12:11:00.078Z,2.53
2018-09-28T12:13:29.287Z,2.50
2018-09-28T12:15:58.738Z,2.22
2018-09-28T12:18:27.813Z,3.35
2018-09-28T12:20:57.240Z,2.47
2018-09-28T12:23:26.830Z,1.92
2018-09-28T12:25:56.553Z,2.33
2018-09-28T12:28:25.712Z,2.00
2018-09-28T12:30:55.004Z,2.17
2018-09-28T12:33:24.525Z,2.42
2018-09-28T12:35:54.060Z,2.20
2018-09-28T12:38:24.219Z,2.70
2018-09-28T12:40:53.875Z,2.00
2018-09-28T12:43:23.971Z,2.65
2018-09-28T12:45:53.234Z,2.60
2018-09-28T12:48:22.644Z,2.00
2018-09-28T12:50:53.148Z,2.17
2018-09-28T12:53:23.890Z,2.77
2018-09-28T12:55:53.287Z,3.65
2018-09-28T12:58:23.023Z,2.60
2018-09-28T13:00:52.105Z,2.20
2018-09-28T13:03:21.607Z,2.72
2018-09-28T13:05:51.207Z,2.45
2018-09-28T13:08:20.316Z,3.22
2018-09-28T13:10:49.344Z,2.70
2018-09-28T13:13:18.890Z,2.98
2018-09-28T13:15:48.191Z,2.50
2018-09-28T13:18:17.309Z,3.12
2018-09-28T13:20:46.258Z,2.98
2018-09-28T13:23:15.207Z,2.90
2018-09-28T13:25:44.708Z,2.60
2018-09-28T13:28:14.286Z,2.98
2018-09-28T13:30:48.410Z,3.10
2018-09-28T13:33:17.339Z,3.17
2018-09-28T13:35:46.794Z,3.05
2018-09-28T13:38:17.398Z,3.20
2018-09-28T13:40:47.143Z,3.27
2018-09-28T13:43:17.095Z,3.00
2018-09-28T13:45:46.242Z,3.22
2018-09-28T13:48:15.819Z,2.98
2018-09-28T13:50:45.036Z,2.92
2018-09-28T13:53:14.875Z,3.42
2018-09-28T13:55:44.341Z,2.83
2018-09-28T13:58:13.827Z,3.22
2018-09-28T14:00:42.720Z,3.02
2018-09-28T14:03:12.076Z,3.17
2018-09-28T14:05:41.164Z,3.15
2018-09-28T14:08:10.397Z,3.60
2018-09-28T14:10:39.392Z,3.60
2018-09-28T14:13:08.757Z,3.75
2018-09-28T14:15:38.725Z,3.33
2018-09-28T14:18:08.025Z,3.33
2018-09-28T14:20:36.963Z,2.75
2018-09-28T14:23:05.855Z,2.65
2018-09-28T14:25:35.272Z,3.47
2018-09-28T14:28:05.163Z,3.40
2018-09-28T14:30:34.581Z,3.12
2018-09-28T14:33:03.490Z,2.80
2018-09-28T14:35:32.672Z,2.87
2018-09-28T14:38:02.088Z,2.40
2018-09-28T14:40:32.367Z,2.42
2018-09-28T14:43:01.368Z,2.45
2018-09-28T14:45:30.355Z,2.30
2018-09-28T14:48:00.188Z,2.72
2018-09-28T14:50:29.928Z,2.35
2018-09-28T14:52:59.257Z,3.02
2018-09-28T14:55:28.419Z,2.10
2018-09-28T14:57:57.479Z,2.50
2018-09-28T15:00:27.228Z,2.87
2018-09-28T15:02:57.128Z,2.40
2018-09-28T15:05:26.215Z,1.60
2018-09-28T15:07:55.212Z,1.60
2018-09-28T15:10:24.277Z,2.10
2018-09-28T15:12:54.323Z,1.65
2018-09-28T15:15:23.550Z,1.90
2018-09-28T15:17:52.840Z,1.85
2018-09-28T15:20:22.328Z,1.65
2018-09-28T15:22:51.529Z,1.72
2018-09-28T15:25:20.620Z,1.50
2018-09-28T15:27:49.987Z,1.50
2018-09-28T15:30:19.032Z,1.40
2018-09-28T15:32:48.284Z,1.30
2018-09-28T15:35:18.094Z,1.40
2018-09-28T15:37:47.127Z,1.30
2018-09-28T15:40:16.476Z,1.73
2018-09-28T15:42:46.333Z,1.10
2018-09-28T15:45:15.393Z,1.50
2018-09-28T15:47:44.386Z,1.80
2018-09-28T15:50:13.667Z,1.33
2018-09-28T15:52:42.623Z,1.10
2018-09-28T15:55:12.368Z,1.20
2018-09-28T15:57:42.327Z,2.23
2018-09-28T16:00:11.250Z,1.33
2018-09-28T16:02:40.147Z,1.23
2018-09-28T16:05:09.108Z,1.17
2018-09-28T16:07:39.068Z,2.27
2018-09-28T16:10:08.055Z,1.63
2018-09-28T16:12:36.967Z,1.40
2018-09-28T16:15:05.597Z,1.73
2018-09-28T16:17:34.181Z,1.80
2018-09-28T16:20:02.779Z,1.50
2018-09-28T16:22:31.353Z,2.10
2018-09-28T16:25:00.278Z,2.53
2018-09-28T16:27:29.242Z,2.27
2018-09-28T16:29:58.246Z,2.40
2018-09-28T16:32:26.971Z,2.77
2018-09-28T16:34:55.803Z,2.77
2018-09-28T16:37:25.106Z,2.93
2018-09-28T16:39:54.402Z,3.17
2018-09-28T16:42:23.525Z,5.00
2018-09-28T16:44:52.907Z,2.63
2018-09-28T16:47:21.995Z,3.10
2018-09-28T16:49:51.295Z,2.40
2018-09-28T16:52:20.596Z,4.33
2018-09-28T16:54:49.798Z,4.90
2018-09-28T16:57:18.334Z,3.23
2018-09-28T16:59:47.389Z,2.90
2018-09-28T17:02:16.474Z,3.60
2018-09-28T17:04:45.347Z,3.70
2018-09-28T17:07:14.107Z,4.97
2018-09-28T17:09:43.453Z,5.37
2018-09-28T17:12:12.866Z,6.50
2018-09-28T17:14:41.748Z,6.13
2018-09-28T17:17:10.835Z,5.17
2018-09-28T17:19:40.135Z,5.27
2018-09-28T17:22:09.436Z,5.40
2018-09-28T17:24:41.491Z,5.10
2018-09-28T17:27:10.096Z,4.00
2018-09-28T17:29:38.970Z,5.10
2018-09-28T17:32:08.173Z,3.87
2018-09-28T17:34:37.474Z,4.00
2018-09-28T17:37:06.467Z,4.80
2018-09-28T17:39:35.459Z,4.50
2018-09-28T17:42:04.020Z,5.03
2018-09-28T17:44:32.608Z,3.87
2018-09-28T17:47:01.533Z,3.70
2018-09-28T17:49:30.223Z,4.93
2018-09-28T17:51:59.094Z,5.17
2018-09-28T17:54:27.673Z,5.90
2018-09-28T17:56:56.217Z,5.13
2018-09-28T17:59:25.573Z,4.60
2018-09-28T18:01:54.327Z,4.43
2018-09-28T18:04:23.823Z,4.17
2018-09-28T18:06:52.516Z,5.37
2018-09-28T18:09:21.135Z,3.53
2018-09-28T18:11:50.220Z,3.60
2018-09-28T18:14:19.043Z,3.97
2018-09-28T18:16:47.599Z,3.97
2018-09-28T18:19:16.202Z,4.20
2018-09-28T18:21:44.814Z,3.93
2018-09-28T18:24:13.411Z,3.83
2018-09-28T18:26:42.101Z,4.00
2018-09-28T18:29:12.071Z,4.50
2018-09-28T18:31:40.731Z,6.73
2018-09-28T18:34:09.439Z,5.53
2018-09-28T18:36:38.102Z,4.87
2018-09-28T18:39:07.926Z,5.73
2018-09-28T18:41:36.652Z,4.43
2018-09-28T18:44:05.554Z,4.97
2018-09-28T18:46:34.909Z,3.67
2018-09-28T18:49:03.489Z,5.20
2018-09-28T18:51:32.014Z,4.07
2018-09-28T18:54:00.954Z,3.80
2018-09-28T18:56:30.561Z,3.70
2018-09-28T18:58:59.470Z,3.40
2018-09-28T19:01:28.547Z,3.30
2018-09-28T19:03:57.436Z,3.30
2018-09-28T19:06:26.743Z,3.40
2018-09-28T19:08:59.735Z,3.77
2018-09-28T19:11:36.291Z,3.40
2018-09-28T19:14:06.688Z,3.43
2018-09-28T19:16:43.297Z,2.70
2018-09-28T19:19:17.525Z,3.23
2018-09-28T19:21:50.928Z,2.60
2018-09-28T19:24:23.381Z,2.80
2018-09-28T19:27:00.865Z,3.20
2018-09-28T19:29:30.419Z,3.03
2018-09-28T19:32:01.935Z,2.83
2018-09-28T19:34:33.908Z,3.27
2018-09-28T19:37:05.246Z,2.93
2018-09-28T19:39:35.501Z,2.50
2018-09-28T19:42:07.024Z,2.83
2018-09-28T19:44:37.351Z,2.97
2018-09-28T19:47:08.417Z,3.30
2018-09-28T19:49:39.328Z,3.93
2018-09-28T19:52:09.750Z,2.73
2018-09-28T19:54:41.239Z,3.07
2018-09-28T19:57:12.139Z,2.70
2018-09-28T19:59:42.892Z,2.43
2018-09-28T20:02:14.456Z,2.93
2018-09-28T20:04:44.848Z,2.23
2018-09-28T20:07:13.382Z,2.67
2018-09-28T20:09:43.986Z,2.50
2018-09-28T20:12:12.710Z,3.43
2018-09-28T20:14:44.975Z,2.93
2018-09-28T20:17:17.371Z,2.70
2018-09-28T20:19:47.003Z,3.03
2018-09-28T20:22:15.679Z,2.70
2018-09-28T20:24:44.580Z,2.87
2018-09-28T20:27:13.422Z,3.03
2018-09-28T20:29:42.449Z,2.97
2018-09-28T20:32:11.559Z,3.00
2018-09-28T20:34:40.553Z,3.27
2018-09-28T20:37:10.166Z,3.33
2018-09-28T20:39:39.442Z,3.60
2018-09-28T20:42:08.460Z,3.83
2018-09-28T20:44:37.139Z,4.07
2018-09-28T20:47:05.726Z,4.92
2018-09-28T20:49:35.035Z,4.60
2018-09-28T20:52:03.839Z,5.30
2018-09-28T20:54:33.596Z,4.33
2018-09-28T20:57:03.127Z,5.73
2018-09-28T20:59:32.234Z,4.73
2018-09-28T21:02:01.517Z,4.70
2018-09-28T21:04:30.433Z,6.43
2018-09-28T21:06:59.310Z,4.37
2018-09-28T21:09:28.594Z,4.10
2018-09-28T21:11:57.986Z,4.07
2018-09-28T21:14:26.710Z,4.50
2018-09-28T21:16:55.548Z,4.10
2018-09-28T21:19:24.888Z,4.37
2018-09-28T21:21:54.188Z,4.90
2018-09-28T21:24:25.948Z,4.43
2018-09-28T21:26:54.758Z,4.60
2018-09-28T21:29:23.531Z,6.03
2018-09-28T21:31:52.626Z,4.53
2018-09-28T21:34:22.225Z,4.57
2018-09-28T21:36:51.431Z,4.53
2018-09-28T21:39:20.002Z,4.50
2018-09-28T21:41:48.808Z,4.57
2018-09-28T21:44:17.739Z,3.77
2018-09-28T21:46:47.100Z,4.43
2018-09-28T21:49:16.593Z,3.70
2018-09-28T21:51:45.484Z,3.93
2018-09-28T21:54:14.307Z,4.33
2018-09-28T21:56:42.955Z,4.50
2018-09-28T21:59:11.670Z,4.30
2018-09-28T22:01:41.425Z,5.03
2018-09-28T22:04:10.450Z,4.30
2018-09-28T22:06:39.750Z,4.77
2018-09-28T22:09:08.930Z,4.17
2018-09-28T22:11:37.862Z,4.70
2018-09-28T22:14:07.117Z,4.57
2018-09-28T22:16:37.245Z,4.77
2018-09-28T22:19:12.543Z,4.53
2018-09-28T22:21:41.710Z,4.30
2018-09-28T22:24:10.998Z,4.20
2018-09-28T22:26:40.678Z,5.20
2018-09-28T22:29:09.374Z,4.40
2018-09-28T22:31:38.283Z,4.75
2018-09-28T22:34:07.104Z,4.20
2018-09-28T22:36:36.895Z,3.37
2018-09-28T22:39:07.107Z,4.03
2018-09-28T22:41:36.294Z,4.10
2018-09-28T22:44:05.523Z,3.77
2018-09-28T22:46:34.175Z,3.90
2018-09-28T22:49:03.290Z,3.50
2018-09-28T22:51:32.119Z,4.37
2018-09-28T22:54:00.966Z,3.63
2018-09-28T22:56:30.366Z,3.90
2018-09-28T22:58:59.318Z,5.15
2018-09-28T23:01:28.352Z,4.00
2018-09-28T23:03:57.115Z,3.87
2018-09-28T23:06:25.835Z,3.73
2018-09-28T23:08:54.717Z,4.03
2018-09-28T23:11:24.017Z,3.57
2018-09-28T23:13:52.915Z,3.90
2018-09-28T23:16:22.618Z,3.83
2018-09-28T23:18:51.534Z,4.20
2018-09-28T23:21:20.912Z,4.07
2018-09-28T23:23:50.119Z,3.73
2018-09-28T23:26:19.205Z,4.17
2018-09-28T23:28:47.982Z,4.50
2018-09-28T23:31:16.781Z,3.97
2018-09-28T23:33:46.086Z,4.10
2018-09-28T23:36:15.177Z,3.93
2018-09-28T23:38:43.960Z,3.93
2018-09-28T23:41:13.066Z,3.77
2018-09-28T23:43:41.934Z,3.97
2018-09-28T23:46:10.606Z,4.10
2018-09-28T23:48:40.450Z,3.40
2018-09-28T23:51:09.750Z,3.70
2018-09-28T23:53:38.744Z,3.57
2018-09-28T23:56:07.638Z,3.53
2018-09-28T23:58:36.535Z,3.70
